sensor_id;sensor_type;location;lat;lon;timestamp;temperature;humidity
5138;DHT22;53959;53.626;11.410;2022-07-11T00:02:18;12.50;99.90
5138;DHT22;53959;53.626;11.410;2022-07-11T00:04:44;12.40;99.90
5138;DHT22;53959;53.626;11.410;2022-07-11T00:07:12;12.50;99.90
5138;DHT22;53959;53.626;11.410;2022-07-11T00:09:37;12.50;99.90
5138;DHT22;53959;53.626;11.410;2022-07-11T00:12:04;12.40;99.90
5138;DHT22;53959;53.626;11.410;2022-07-11T00:14:30;12.30;99.90
5138;DHT22;53959;53.626;11.410;2022-07-11T00:16:55;12.30;99.90
5138;DHT22;53959;53.626;11.410;2022-07-11T00:19:22;12.30;99.90
5138;DHT22;53959;53.626;11.410;2022-07-11T00:21:51;12.40;99.90
5138;DHT22;53959;53.626;11.410;2022-07-11T00:24:18;12.40;99.90
5138;DHT22;53959;53.626;11.410;2022-07-11T00:26:48;12.50;99.90
5138;DHT22;53959;53.626;11.410;2022-07-11T00:29:14;12.40;99.90
5138;DHT22;53959;53.626;11.410;2022-07-11T00:31:40;12.30;99.90
5138;DHT22;53959;53.626;11.410;2022-07-11T00:34:06;12.30;99.90
5138;DHT22;53959;53.626;11.410;2022-07-11T00:36:31;12.30;99.90
5138;DHT22;53959;53.626;11.410;2022-07-11T00:38:57;12.20;99.90
5138;DHT22;53959;53.626;11.410;2022-07-11T00:41:23;12.10;99.90
5138;DHT22;53959;53.626;11.410;2022-07-11T00:43:55;12.00;99.90
5138;DHT22;53959;53.626;11.410;2022-07-11T00:46:22;12.00;99.90
5138;DHT22;53959;53.626;11.410;2022-07-11T00:48:48;12.10;99.90
5138;DHT22;53959;53.626;11.410;2022-07-11T00:51:14;12.10;99.90
5138;DHT22;53959;53.626;11.410;2022-07-11T00:53:41;12.10;99.90
5138;DHT22;53959;53.626;11.410;2022-07-11T00:56:08;12.10;99.90
5138;DHT22;53959;53.626;11.410;2022-07-11T00:58:34;12.10;99.90
5138;DHT22;53959;53.626;11.410;2022-07-11T01:01:01;12.10;99.90
5138;DHT22;53959;53.626;11.410;2022-07-11T01:03:27;12.10;99.90
5138;DHT22;53959;53.626;11.410;2022-07-11T01:05:52;12.00;99.90
5138;DHT22;53959;53.626;11.410;2022-07-11T01:08:18;12.00;99.90
5138;DHT22;53959;53.626;11.410;2022-07-11T01:10:43;12.10;99.90
5138;DHT22;53959;53.626;11.410;2022-07-11T01:13:09;12.00;99.90
5138;DHT22;53959;53.626;11.410;2022-07-11T01:15:35;12.00;99.90
5138;DHT22;53959;53.626;11.410;2022-07-11T01:18:02;11.90;99.90
5138;DHT22;53959;53.626;11.410;2022-07-11T01:20:27;12.00;99.90
5138;DHT22;53959;53.626;11.410;2022-07-11T01:22:55;12.00;99.90
5138;DHT22;53959;53.626;11.410;2022-07-11T01:25:22;11.90;99.90
5138;DHT22;53959;53.626;11.410;2022-07-11T01:27:58;11.90;99.90
5138;DHT22;53959;53.626;11.410;2022-07-11T01:30:24;12.00;99.90
5138;DHT22;53959;53.626;11.410;2022-07-11T01:32:51;11.90;99.90
5138;DHT22;53959;53.626;11.410;2022-07-11T01:35:17;11.90;99.90
5138;DHT22;53959;53.626;11.410;2022-07-11T01:37:43;11.90;99.90
5138;DHT22;53959;53.626;11.410;2022-07-11T01:40:09;11.90;99.90
5138;DHT22;53959;53.626;11.410;2022-07-11T01:42:34;11.90;99.90
5138;DHT22;53959;53.626;11.410;2022-07-11T01:45:00;11.90;99.90
5138;DHT22;53959;53.626;11.410;2022-07-11T01:47:26;11.90;99.90
5138;DHT22;53959;53.626;11.410;2022-07-11T01:49:51;11.90;99.90
5138;DHT22;53959;53.626;11.410;2022-07-11T01:52:17;11.90;99.90
5138;DHT22;53959;53.626;11.410;2022-07-11T01:54:42;11.90;99.90
5138;DHT22;53959;53.626;11.410;2022-07-11T01:57:08;12.00;99.90
5138;DHT22;53959;53.626;11.410;2022-07-11T01:59:35;11.80;99.90
5138;DHT22;53959;53.626;11.410;2022-07-11T02:02:01;11.80;99.90
5138;DHT22;53959;53.626;11.410;2022-07-11T02:04:27;11.80;99.90
5138;DHT22;53959;53.626;11.410;2022-07-11T02:06:52;11.80;99.90
5138;DHT22;53959;53.626;11.410;2022-07-11T02:09:18;11.70;99.90
5138;DHT22;53959;53.626;11.410;2022-07-11T02:11:44;11.80;99.90
5138;DHT22;53959;53.626;11.410;2022-07-11T02:14:09;11.80;99.90
5138;DHT22;53959;53.626;11.410;2022-07-11T02:16:35;11.70;99.90
5138;DHT22;53959;53.626;11.410;2022-07-11T02:19:00;11.70;99.90
5138;DHT22;53959;53.626;11.410;2022-07-11T02:21:26;11.60;99.90
5138;DHT22;53959;53.626;11.410;2022-07-11T02:23:51;11.60;99.90
5138;DHT22;53959;53.626;11.410;2022-07-11T02:26:17;11.60;99.90
5138;DHT22;53959;53.626;11.410;2022-07-11T02:28:42;11.60;99.90
5138;DHT22;53959;53.626;11.410;2022-07-11T02:31:09;11.70;99.90
5138;DHT22;53959;53.626;11.410;2022-07-11T02:33:35;11.60;99.90
5138;DHT22;53959;53.626;11.410;2022-07-11T02:36:00;11.60;99.90
5138;DHT22;53959;53.626;11.410;2022-07-11T02:38:26;11.70;99.90
5138;DHT22;53959;53.626;11.410;2022-07-11T02:40:52;11.60;99.90
5138;DHT22;53959;53.626;11.410;2022-07-11T02:43:17;11.50;99.90
5138;DHT22;53959;53.626;11.410;2022-07-11T02:45:43;11.50;99.90
5138;DHT22;53959;53.626;11.410;2022-07-11T02:48:08;11.50;99.90
5138;DHT22;53959;53.626;11.410;2022-07-11T02:50:34;11.40;99.90
5138;DHT22;53959;53.626;11.410;2022-07-11T02:53:00;11.40;99.90
5138;DHT22;53959;53.626;11.410;2022-07-11T02:55:25;11.50;99.90
5138;DHT22;53959;53.626;11.410;2022-07-11T02:57:51;11.50;99.90
5138;DHT22;53959;53.626;11.410;2022-07-11T03:00:17;11.50;99.90
5138;DHT22;53959;53.626;11.410;2022-07-11T03:02:43;11.40;99.90
5138;DHT22;53959;53.626;11.410;2022-07-11T03:05:09;11.40;99.90
5138;DHT22;53959;53.626;11.410;2022-07-11T03:07:35;11.40;99.90
5138;DHT22;53959;53.626;11.410;2022-07-11T03:10:01;11.30;99.90
5138;DHT22;53959;53.626;11.410;2022-07-11T03:12:26;11.40;99.90
5138;DHT22;53959;53.626;11.410;2022-07-11T03:14:52;11.30;99.90
5138;DHT22;53959;53.626;11.410;2022-07-11T03:17:18;11.30;99.90
5138;DHT22;53959;53.626;11.410;2022-07-11T03:19:44;11.30;99.90
5138;DHT22;53959;53.626;11.410;2022-07-11T03:22:10;11.20;99.90
5138;DHT22;53959;53.626;11.410;2022-07-11T03:24:36;11.30;99.90
5138;DHT22;53959;53.626;11.410;2022-07-11T03:27:02;11.30;99.90
5138;DHT22;53959;53.626;11.410;2022-07-11T03:29:28;11.40;99.90
5138;DHT22;53959;53.626;11.410;2022-07-11T03:31:53;11.40;99.90
5138;DHT22;53959;53.626;11.410;2022-07-11T03:34:19;11.40;99.90
5138;DHT22;53959;53.626;11.410;2022-07-11T03:36:44;11.30;99.90
5138;DHT22;53959;53.626;11.410;2022-07-11T03:39:14;11.20;99.90
5138;DHT22;53959;53.626;11.410;2022-07-11T03:41:40;11.30;99.90
5138;DHT22;53959;53.626;11.410;2022-07-11T03:44:06;11.40;99.90
5138;DHT22;53959;53.626;11.410;2022-07-11T03:46:31;11.30;99.90
5138;DHT22;53959;53.626;11.410;2022-07-11T03:48:57;11.20;99.90
5138;DHT22;53959;53.626;11.410;2022-07-11T03:51:23;11.30;99.90
5138;DHT22;53959;53.626;11.410;2022-07-11T03:53:48;11.20;99.90
5138;DHT22;53959;53.626;11.410;2022-07-11T03:56:14;11.30;99.90
5138;DHT22;53959;53.626;11.410;2022-07-11T03:58:42;11.20;99.90
5138;DHT22;53959;53.626;11.410;2022-07-11T04:01:07;11.20;99.90
5138;DHT22;53959;53.626;11.410;2022-07-11T04:03:33;11.20;99.90
5138;DHT22;53959;53.626;11.410;2022-07-11T04:05:58;11.20;99.90
5138;DHT22;53959;53.626;11.410;2022-07-11T04:08:24;11.00;99.90
5138;DHT22;53959;53.626;11.410;2022-07-11T04:10:49;11.10;99.90
5138;DHT22;53959;53.626;11.410;2022-07-11T04:13:15;11.00;99.90
5138;DHT22;53959;53.626;11.410;2022-07-11T04:15:40;11.00;99.90
5138;DHT22;53959;53.626;11.410;2022-07-11T04:18:06;11.10;99.90
5138;DHT22;53959;53.626;11.410;2022-07-11T04:20:31;11.10;99.90
5138;DHT22;53959;53.626;11.410;2022-07-11T04:22:57;11.10;99.90
5138;DHT22;53959;53.626;11.410;2022-07-11T04:25:22;11.20;99.90
5138;DHT22;53959;53.626;11.410;2022-07-11T04:27:48;11.20;99.90
5138;DHT22;53959;53.626;11.410;2022-07-11T04:30:13;11.20;99.90
5138;DHT22;53959;53.626;11.410;2022-07-11T04:32:39;11.30;99.90
5138;DHT22;53959;53.626;11.410;2022-07-11T04:35:05;11.20;99.90
5138;DHT22;53959;53.626;11.410;2022-07-11T04:37:31;11.30;99.90
5138;DHT22;53959;53.626;11.410;2022-07-11T04:39:57;11.30;99.90
5138;DHT22;53959;53.626;11.410;2022-07-11T04:42:22;11.30;99.90
5138;DHT22;53959;53.626;11.410;2022-07-11T04:44:48;11.40;99.90
5138;DHT22;53959;53.626;11.410;2022-07-11T04:47:13;11.20;99.90
5138;DHT22;53959;53.626;11.410;2022-07-11T04:49:39;11.40;99.90
5138;DHT22;53959;53.626;11.410;2022-07-11T04:52:05;11.40;99.90
5138;DHT22;53959;53.626;11.410;2022-07-11T04:54:30;11.50;99.90
5138;DHT22;53959;53.626;11.410;2022-07-11T04:56:56;11.60;99.90
5138;DHT22;53959;53.626;11.410;2022-07-11T04:59:22;11.70;99.90
5138;DHT22;53959;53.626;11.410;2022-07-11T05:01:49;11.70;99.90
5138;DHT22;53959;53.626;11.410;2022-07-11T05:04:15;11.80;99.90
5138;DHT22;53959;53.626;11.410;2022-07-11T05:06:41;11.90;99.90
5138;DHT22;53959;53.626;11.410;2022-07-11T05:09:07;12.00;99.90
5138;DHT22;53959;53.626;11.410;2022-07-11T05:11:34;12.10;99.90
5138;DHT22;53959;53.626;11.410;2022-07-11T05:14:00;12.10;99.90
5138;DHT22;53959;53.626;11.410;2022-07-11T05:16:26;12.30;99.90
5138;DHT22;53959;53.626;11.410;2022-07-11T05:18:51;12.30;99.90
5138;DHT22;53959;53.626;11.410;2022-07-11T05:21:17;12.30;99.90
5138;DHT22;53959;53.626;11.410;2022-07-11T05:23:47;12.40;99.90
5138;DHT22;53959;53.626;11.410;2022-07-11T05:26:13;12.50;99.90
5138;DHT22;53959;53.626;11.410;2022-07-11T05:28:40;12.60;99.90
5138;DHT22;53959;53.626;11.410;2022-07-11T05:31:05;12.60;99.90
5138;DHT22;53959;53.626;11.410;2022-07-11T05:33:31;12.70;99.90
5138;DHT22;53959;53.626;11.410;2022-07-11T05:35:57;12.60;99.90
5138;DHT22;53959;53.626;11.410;2022-07-11T05:38:22;12.70;99.90
5138;DHT22;53959;53.626;11.410;2022-07-11T05:40:48;12.70;99.90
5138;DHT22;53959;53.626;11.410;2022-07-11T05:43:13;12.90;99.90
5138;DHT22;53959;53.626;11.410;2022-07-11T05:45:39;13.00;99.90
5138;DHT22;53959;53.626;11.410;2022-07-11T05:48:05;13.00;99.90
5138;DHT22;53959;53.626;11.410;2022-07-11T05:50:30;13.10;99.90
5138;DHT22;53959;53.626;11.410;2022-07-11T05:52:56;13.20;99.90
5138;DHT22;53959;53.626;11.410;2022-07-11T05:55:23;13.20;99.90
5138;DHT22;53959;53.626;11.410;2022-07-11T05:57:48;13.40;99.90
5138;DHT22;53959;53.626;11.410;2022-07-11T06:00:14;13.40;99.90
5138;DHT22;53959;53.626;11.410;2022-07-11T06:02:40;13.50;99.90
5138;DHT22;53959;53.626;11.410;2022-07-11T06:05:05;13.70;99.90
5138;DHT22;53959;53.626;11.410;2022-07-11T06:07:31;13.90;99.90
5138;DHT22;53959;53.626;11.410;2022-07-11T06:10:15;13.90;99.90
5138;DHT22;53959;53.626;11.410;2022-07-11T06:12:41;14.20;99.90
5138;DHT22;53959;53.626;11.410;2022-07-11T06:15:07;14.30;99.90
5138;DHT22;53959;53.626;11.410;2022-07-11T06:17:33;14.20;99.90
5138;DHT22;53959;53.626;11.410;2022-07-11T06:19:58;14.40;99.90
5138;DHT22;53959;53.626;11.410;2022-07-11T06:22:24;14.50;99.90
5138;DHT22;53959;53.626;11.410;2022-07-11T06:24:49;14.50;99.90
5138;DHT22;53959;53.626;11.410;2022-07-11T06:27:15;14.50;99.90
5138;DHT22;53959;53.626;11.410;2022-07-11T06:29:40;14.80;99.90
5138;DHT22;53959;53.626;11.410;2022-07-11T06:32:06;14.70;99.90
5138;DHT22;53959;53.626;11.410;2022-07-11T06:34:32;14.80;99.90
5138;DHT22;53959;53.626;11.410;2022-07-11T06:36:57;14.90;99.90
5138;DHT22;53959;53.626;11.410;2022-07-11T06:39:23;15.10;99.90
5138;DHT22;53959;53.626;11.410;2022-07-11T06:41:48;15.40;99.90
5138;DHT22;53959;53.626;11.410;2022-07-11T06:44:15;15.40;99.90
5138;DHT22;53959;53.626;11.410;2022-07-11T06:46:40;15.60;99.90
5138;DHT22;53959;53.626;11.410;2022-07-11T06:49:06;15.80;99.90
5138;DHT22;53959;53.626;11.410;2022-07-11T06:51:33;15.60;99.90
5138;DHT22;53959;53.626;11.410;2022-07-11T06:53:58;15.90;99.90
5138;DHT22;53959;53.626;11.410;2022-07-11T06:56:24;16.10;99.90
5138;DHT22;53959;53.626;11.410;2022-07-11T06:58:49;16.00;99.90
5138;DHT22;53959;53.626;11.410;2022-07-11T07:01:15;16.30;99.90
5138;DHT22;53959;53.626;11.410;2022-07-11T07:03:40;16.50;99.90
5138;DHT22;53959;53.626;11.410;2022-07-11T07:06:07;16.40;99.90
5138;DHT22;53959;53.626;11.410;2022-07-11T07:08:32;16.10;99.90
5138;DHT22;53959;53.626;11.410;2022-07-11T07:10:58;16.10;99.90
5138;DHT22;53959;53.626;11.410;2022-07-11T07:13:24;16.00;99.90
5138;DHT22;53959;53.626;11.410;2022-07-11T07:15:51;16.10;99.90
5138;DHT22;53959;53.626;11.410;2022-07-11T07:18:18;16.50;99.90
5138;DHT22;53959;53.626;11.410;2022-07-11T07:20:43;17.00;99.90
5138;DHT22;53959;53.626;11.410;2022-07-11T07:23:09;17.50;99.90
5138;DHT22;53959;53.626;11.410;2022-07-11T07:25:35;17.90;1.00
5138;DHT22;53959;53.626;11.410;2022-07-11T07:28:00;18.00;99.90
5138;DHT22;53959;53.626;11.410;2022-07-11T07:30:26;18.00;99.90
5138;DHT22;53959;53.626;11.410;2022-07-11T07:32:51;18.10;1.00
5138;DHT22;53959;53.626;11.410;2022-07-11T07:35:17;17.80;1.00
5138;DHT22;53959;53.626;11.410;2022-07-11T07:37:43;17.70;99.90
5138;DHT22;53959;53.626;11.410;2022-07-11T07:40:08;17.80;1.00
5138;DHT22;53959;53.626;11.410;2022-07-11T07:42:34;17.90;1.00
5138;DHT22;53959;53.626;11.410;2022-07-11T07:45:00;18.10;99.90
5138;DHT22;53959;53.626;11.410;2022-07-11T07:47:26;18.10;1.00
5138;DHT22;53959;53.626;11.410;2022-07-11T07:49:53;18.00;1.00
5138;DHT22;53959;53.626;11.410;2022-07-11T07:52:18;18.50;99.90
5138;DHT22;53959;53.626;11.410;2022-07-11T07:54:44;18.80;99.90
5138;DHT22;53959;53.626;11.410;2022-07-11T07:57:09;18.60;99.90
5138;DHT22;53959;53.626;11.410;2022-07-11T07:59:35;18.80;1.00
5138;DHT22;53959;53.626;11.410;2022-07-11T08:02:01;19.30;1.00
5138;DHT22;53959;53.626;11.410;2022-07-11T08:04:26;19.50;99.90
5138;DHT22;53959;53.626;11.410;2022-07-11T08:06:52;19.20;99.90
5138;DHT22;53959;53.626;11.410;2022-07-11T08:09:17;18.90;99.90
5138;DHT22;53959;53.626;11.410;2022-07-11T08:11:43;18.30;20.80
5138;DHT22;53959;53.626;11.410;2022-07-11T08:14:09;18.20;99.90
5138;DHT22;53959;53.626;11.410;2022-07-11T08:16:34;18.30;46.70
5138;DHT22;53959;53.626;11.410;2022-07-11T08:19:03;17.90;99.90
5138;DHT22;53959;53.626;11.410;2022-07-11T08:21:29;18.70;99.90
5138;DHT22;53959;53.626;11.410;2022-07-11T08:23:56;18.60;1.00
5138;DHT22;53959;53.626;11.410;2022-07-11T08:26:22;18.40;33.10
5138;DHT22;53959;53.626;11.410;2022-07-11T08:28:48;18.40;1.00
5138;DHT22;53959;53.626;11.410;2022-07-11T08:31:13;18.50;1.00
5138;DHT22;53959;53.626;11.410;2022-07-11T08:33:39;19.10;1.00
5138;DHT22;53959;53.626;11.410;2022-07-11T08:36:05;19.50;99.90
5138;DHT22;53959;53.626;11.410;2022-07-11T08:38:31;19.50;99.40
5138;DHT22;53959;53.626;11.410;2022-07-11T08:40:57;19.20;1.00
5138;DHT22;53959;53.626;11.410;2022-07-11T08:43:29;19.30;13.00
5138;DHT22;53959;53.626;11.410;2022-07-11T08:45:55;19.00;28.90
5138;DHT22;53959;53.626;11.410;2022-07-11T08:48:22;19.80;1.00
5138;DHT22;53959;53.626;11.410;2022-07-11T08:50:49;20.90;1.00
5138;DHT22;53959;53.626;11.410;2022-07-11T08:53:15;22.20;99.90
5138;DHT22;53959;53.626;11.410;2022-07-11T08:55:41;22.90;99.90
5138;DHT22;53959;53.626;11.410;2022-07-11T08:58:08;23.60;64.20
5138;DHT22;53959;53.626;11.410;2022-07-11T09:00:36;22.80;1.00
5138;DHT22;53959;53.626;11.410;2022-07-11T09:03:03;22.30;1.30
5138;DHT22;53959;53.626;11.410;2022-07-11T09:05:30;21.20;49.20
5138;DHT22;53959;53.626;11.410;2022-07-11T09:07:56;21.30;99.90
5138;DHT22;53959;53.626;11.410;2022-07-11T09:10:21;21.20;99.90
5138;DHT22;53959;53.626;11.410;2022-07-11T09:13:02;19.90;99.90
5138;DHT22;53959;53.626;11.410;2022-07-11T09:15:46;20.80;99.90
5138;DHT22;53959;53.626;11.410;2022-07-11T09:21:00;20.20;99.90
5138;DHT22;53959;53.626;11.410;2022-07-11T09:23:45;21.30;99.90
5138;DHT22;53959;53.626;11.410;2022-07-11T09:26:31;22.30;30.00
5138;DHT22;53959;53.626;11.410;2022-07-11T09:31:36;21.00;56.50
5138;DHT22;53959;53.626;11.410;2022-07-11T09:34:06;19.90;99.90
5138;DHT22;53959;53.626;11.410;2022-07-11T09:36:39;20.00;99.90
5138;DHT22;53959;53.626;11.410;2022-07-11T09:39:06;19.90;99.90
5138;DHT22;53959;53.626;11.410;2022-07-11T09:41:36;19.90;99.90
5138;DHT22;53959;53.626;11.410;2022-07-11T09:44:09;19.60;1.00
5138;DHT22;53959;53.626;11.410;2022-07-11T09:46:35;19.40;1.00
5138;DHT22;53959;53.626;11.410;2022-07-11T09:49:01;19.30;99.90
5138;DHT22;53959;53.626;11.410;2022-07-11T09:51:27;19.10;42.30
5138;DHT22;53959;53.626;11.410;2022-07-11T09:53:56;19.30;63.10
5138;DHT22;53959;53.626;11.410;2022-07-11T09:56:32;19.30;99.90
5138;DHT22;53959;53.626;11.410;2022-07-11T09:59:03;19.20;99.90
5138;DHT22;53959;53.626;11.410;2022-07-11T10:01:29;20.80;99.90
5138;DHT22;53959;53.626;11.410;2022-07-11T10:03:55;22.20;48.30
5138;DHT22;53959;53.626;11.410;2022-07-11T10:06:21;22.30;1.00
5138;DHT22;53959;53.626;11.410;2022-07-11T10:08:52;21.90;1.00
5138;DHT22;53959;53.626;11.410;2022-07-11T10:11:19;21.80;1.00
5138;DHT22;53959;53.626;11.410;2022-07-11T10:13:45;23.00;1.00
5138;DHT22;53959;53.626;11.410;2022-07-11T10:16:25;21.60;1.00
5138;DHT22;53959;53.626;11.410;2022-07-11T10:19:06;21.50;1.00
5138;DHT22;53959;53.626;11.410;2022-07-11T10:24:51;20.80;1.00
5138;DHT22;53959;53.626;11.410;2022-07-11T10:27:29;20.60;1.00
5138;DHT22;53959;53.626;11.410;2022-07-11T10:30:01;20.50;1.00
5138;DHT22;53959;53.626;11.410;2022-07-11T10:32:26;21.20;1.00
5138;DHT22;53959;53.626;11.410;2022-07-11T10:35:09;21.40;1.00
5138;DHT22;53959;53.626;11.410;2022-07-11T10:37:53;22.50;1.00
5138;DHT22;53959;53.626;11.410;2022-07-11T10:43:10;22.40;1.00
5138;DHT22;53959;53.626;11.410;2022-07-11T10:48:24;23.10;1.00
5138;DHT22;53959;53.626;11.410;2022-07-11T10:51:00;22.70;1.00
5138;DHT22;53959;53.626;11.410;2022-07-11T10:53:32;23.30;1.00
5138;DHT22;53959;53.626;11.410;2022-07-11T10:59:02;22.40;1.00
5138;DHT22;53959;53.626;11.410;2022-07-11T11:01:29;22.30;1.00
5138;DHT22;53959;53.626;11.410;2022-07-11T11:06:59;22.30;1.00
5138;DHT22;53959;53.626;11.410;2022-07-11T11:09:42;22.10;1.00
5138;DHT22;53959;53.626;11.410;2022-07-11T11:12:08;21.40;1.00
5138;DHT22;53959;53.626;11.410;2022-07-11T11:14:33;21.20;1.00
5138;DHT22;53959;53.626;11.410;2022-07-11T11:17:34;21.10;1.00
5138;DHT22;53959;53.626;11.410;2022-07-11T11:20:01;21.50;1.00
5138;DHT22;53959;53.626;11.410;2022-07-11T11:22:28;22.30;1.00
5138;DHT22;53959;53.626;11.410;2022-07-11T11:24:56;22.50;1.00
5138;DHT22;53959;53.626;11.410;2022-07-11T11:27:25;23.20;1.00
5138;DHT22;53959;53.626;11.410;2022-07-11T11:29:55;23.20;1.00
5138;DHT22;53959;53.626;11.410;2022-07-11T11:32:24;23.60;1.00
5138;DHT22;53959;53.626;11.410;2022-07-11T11:34:54;23.20;1.00
5138;DHT22;53959;53.626;11.410;2022-07-11T11:37:20;22.50;1.00
5138;DHT22;53959;53.626;11.410;2022-07-11T11:39:46;22.10;1.00
5138;DHT22;53959;53.626;11.410;2022-07-11T11:42:16;22.30;1.00
5138;DHT22;53959;53.626;11.410;2022-07-11T11:45:01;22.80;1.00
5138;DHT22;53959;53.626;11.410;2022-07-11T11:47:30;23.30;1.00
5138;DHT22;53959;53.626;11.410;2022-07-11T11:49:56;23.50;1.00
5138;DHT22;53959;53.626;11.410;2022-07-11T11:52:22;23.30;1.00
5138;DHT22;53959;53.626;11.410;2022-07-11T11:54:53;23.00;1.00
5138;DHT22;53959;53.626;11.410;2022-07-11T11:57:21;23.00;1.00
5138;DHT22;53959;53.626;11.410;2022-07-11T11:59:48;22.40;1.00
5138;DHT22;53959;53.626;11.410;2022-07-11T12:02:24;22.40;1.00
5138;DHT22;53959;53.626;11.410;2022-07-11T12:04:50;21.90;1.00
5138;DHT22;53959;53.626;11.410;2022-07-11T12:07:22;21.70;1.00
5138;DHT22;53959;53.626;11.410;2022-07-11T12:09:52;21.40;1.00
5138;DHT22;53959;53.626;11.410;2022-07-11T12:12:28;21.30;1.00
5138;DHT22;53959;53.626;11.410;2022-07-11T12:15:32;21.10;1.00
5138;DHT22;53959;53.626;11.410;2022-07-11T12:18:21;21.10;1.00
5138;DHT22;53959;53.626;11.410;2022-07-11T12:20:46;20.90;1.00
5138;DHT22;53959;53.626;11.410;2022-07-11T12:23:16;20.90;1.00
5138;DHT22;53959;53.626;11.410;2022-07-11T12:25:42;20.90;1.00
5138;DHT22;53959;53.626;11.410;2022-07-11T12:28:08;21.00;1.00
5138;DHT22;53959;53.626;11.410;2022-07-11T12:30:35;21.00;1.00
5138;DHT22;53959;53.626;11.410;2022-07-11T12:33:09;21.00;1.00
5138;DHT22;53959;53.626;11.410;2022-07-11T12:35:35;21.00;1.00
5138;DHT22;53959;53.626;11.410;2022-07-11T12:38:01;21.30;1.00
5138;DHT22;53959;53.626;11.410;2022-07-11T12:40:27;21.60;1.00
5138;DHT22;53959;53.626;11.410;2022-07-11T12:42:53;22.10;1.00
5138;DHT22;53959;53.626;11.410;2022-07-11T12:45:18;22.70;1.00
5138;DHT22;53959;53.626;11.410;2022-07-11T12:47:48;23.30;1.00
5138;DHT22;53959;53.626;11.410;2022-07-11T12:50:15;23.50;1.00
5138;DHT22;53959;53.626;11.410;2022-07-11T12:52:43;23.20;1.00
5138;DHT22;53959;53.626;11.410;2022-07-11T13:00:28;23.00;1.00
5138;DHT22;53959;53.626;11.410;2022-07-11T13:02:54;23.60;1.00
5138;DHT22;53959;53.626;11.410;2022-07-11T13:05:20;24.10;1.00
5138;DHT22;53959;53.626;11.410;2022-07-11T13:07:45;24.00;1.00
5138;DHT22;53959;53.626;11.410;2022-07-11T13:10:30;24.00;1.00
5138;DHT22;53959;53.626;11.410;2022-07-11T13:13:15;24.60;1.00
5138;DHT22;53959;53.626;11.410;2022-07-11T13:15:41;23.30;1.00
5138;DHT22;53959;53.626;11.410;2022-07-11T13:18:07;22.60;1.00
5138;DHT22;53959;53.626;11.410;2022-07-11T13:20:34;22.70;1.00
5138;DHT22;53959;53.626;11.410;2022-07-11T13:23:00;22.90;1.00
5138;DHT22;53959;53.626;11.410;2022-07-11T13:25:27;23.70;1.00
5138;DHT22;53959;53.626;11.410;2022-07-11T13:27:53;23.60;1.00
5138;DHT22;53959;53.626;11.410;2022-07-11T13:30:20;23.90;1.00
5138;DHT22;53959;53.626;11.410;2022-07-11T13:32:49;23.70;1.00
5138;DHT22;53959;53.626;11.410;2022-07-11T13:35:15;23.20;1.00
5138;DHT22;53959;53.626;11.410;2022-07-11T13:37:41;22.60;1.00
5138;DHT22;53959;53.626;11.410;2022-07-11T13:40:12;22.40;1.00
5138;DHT22;53959;53.626;11.410;2022-07-11T13:42:42;22.70;1.00
5138;DHT22;53959;53.626;11.410;2022-07-11T13:45:10;22.80;1.00
5138;DHT22;53959;53.626;11.410;2022-07-11T13:47:36;22.70;1.00
5138;DHT22;53959;53.626;11.410;2022-07-11T13:50:02;23.00;1.00
5138;DHT22;53959;53.626;11.410;2022-07-11T13:52:28;23.00;99.90
5138;DHT22;53959;53.626;11.410;2022-07-11T13:54:54;23.40;99.90
5138;DHT22;53959;53.626;11.410;2022-07-11T13:57:20;23.20;99.90
5138;DHT22;53959;53.626;11.410;2022-07-11T13:59:46;23.30;99.90
5138;DHT22;53959;53.626;11.410;2022-07-11T14:02:12;22.90;99.90
5138;DHT22;53959;53.626;11.410;2022-07-11T14:04:38;23.10;99.90
5138;DHT22;53959;53.626;11.410;2022-07-11T14:07:03;22.80;99.90
5138;DHT22;53959;53.626;11.410;2022-07-11T14:09:29;22.90;99.90
5138;DHT22;53959;53.626;11.410;2022-07-11T14:11:55;23.20;99.90
5138;DHT22;53959;53.626;11.410;2022-07-11T14:14:21;23.40;99.90
5138;DHT22;53959;53.626;11.410;2022-07-11T14:16:46;23.60;99.90
5138;DHT22;53959;53.626;11.410;2022-07-11T14:19:12;23.40;99.90
5138;DHT22;53959;53.626;11.410;2022-07-11T14:21:38;23.20;99.90
5138;DHT22;53959;53.626;11.410;2022-07-11T14:24:05;23.20;99.90
5138;DHT22;53959;53.626;11.410;2022-07-11T14:26:32;23.00;99.90
5138;DHT22;53959;53.626;11.410;2022-07-11T14:28:58;22.70;99.90
5138;DHT22;53959;53.626;11.410;2022-07-11T14:31:24;22.70;99.90
5138;DHT22;53959;53.626;11.410;2022-07-11T14:33:54;22.00;99.90
5138;DHT22;53959;53.626;11.410;2022-07-11T14:36:20;21.90;99.90
5138;DHT22;53959;53.626;11.410;2022-07-11T14:38:46;21.90;99.90
5138;DHT22;53959;53.626;11.410;2022-07-11T14:41:12;22.30;99.90
5138;DHT22;53959;53.626;11.410;2022-07-11T14:43:38;22.30;99.90
5138;DHT22;53959;53.626;11.410;2022-07-11T14:46:04;22.20;99.90
5138;DHT22;53959;53.626;11.410;2022-07-11T14:48:29;22.00;99.90
5138;DHT22;53959;53.626;11.410;2022-07-11T14:50:55;21.90;99.90
5138;DHT22;53959;53.626;11.410;2022-07-11T14:53:21;22.00;99.90
5138;DHT22;53959;53.626;11.410;2022-07-11T14:55:47;21.90;99.90
5138;DHT22;53959;53.626;11.410;2022-07-11T14:58:12;22.10;99.90
5138;DHT22;53959;53.626;11.410;2022-07-11T15:00:38;22.30;99.90
5138;DHT22;53959;53.626;11.410;2022-07-11T15:03:04;22.40;99.90
5138;DHT22;53959;53.626;11.410;2022-07-11T15:05:50;22.50;99.90
5138;DHT22;53959;53.626;11.410;2022-07-11T15:08:15;22.40;99.90
5138;DHT22;53959;53.626;11.410;2022-07-11T15:10:59;22.20;99.90
5138;DHT22;53959;53.626;11.410;2022-07-11T15:13:43;22.20;99.90
5138;DHT22;53959;53.626;11.410;2022-07-11T15:16:09;22.20;99.90
5138;DHT22;53959;53.626;11.410;2022-07-11T15:18:34;22.10;99.90
5138;DHT22;53959;53.626;11.410;2022-07-11T15:21:00;22.00;99.90
5138;DHT22;53959;53.626;11.410;2022-07-11T15:23:26;21.80;99.90
5138;DHT22;53959;53.626;11.410;2022-07-11T15:25:51;21.80;99.90
5138;DHT22;53959;53.626;11.410;2022-07-11T15:28:19;21.90;99.90
5138;DHT22;53959;53.626;11.410;2022-07-11T15:30:44;21.80;99.90
5138;DHT22;53959;53.626;11.410;2022-07-11T15:33:10;21.90;99.90
5138;DHT22;53959;53.626;11.410;2022-07-11T15:35:35;21.70;99.90
5138;DHT22;53959;53.626;11.410;2022-07-11T15:38:01;21.50;99.90
5138;DHT22;53959;53.626;11.410;2022-07-11T15:40:27;21.70;99.90
5138;DHT22;53959;53.626;11.410;2022-07-11T15:42:53;21.90;99.90
5138;DHT22;53959;53.626;11.410;2022-07-11T15:45:19;21.60;99.90
5138;DHT22;53959;53.626;11.410;2022-07-11T15:47:44;21.70;1.00
5138;DHT22;53959;53.626;11.410;2022-07-11T15:50:10;21.90;1.00
5138;DHT22;53959;53.626;11.410;2022-07-11T15:52:36;21.80;99.90
5138;DHT22;53959;53.626;11.410;2022-07-11T15:55:01;22.00;1.00
5138;DHT22;53959;53.626;11.410;2022-07-11T15:57:27;21.90;1.00
5138;DHT22;53959;53.626;11.410;2022-07-11T15:59:53;21.80;1.00
5138;DHT22;53959;53.626;11.410;2022-07-11T16:02:18;21.80;1.00